Time;durP1;ratioP1;P1;durP2;ratioP2;P2;SDS_P1;SDS_P2;PMS_P1;PMS_P2;Temp;Humidity;BMP_temperature;BMP_pressure;BME280_temperature;BME280_humidity;BME280_pressure;Samples;Min_cycle;Max_cycle;Signal;HPM_P1;HPM_P2
2019/05/20 00:02:16;;;;;;;9.6;8.6;;;;;;;14.13;81.65918;948.4905;;;;
2019/05/20 00:04:41;;;;;;;9.4;8.5;;;;;;;14.03;82.5332;948.5892;;;;
2019/05/20 00:07:06;;;;;;;10.2;9.3;;;;;;;14.1;82.20508;948.6253;;;;
2019/05/20 00:09:31;;;;;;;10.6;9.6;;;;;;;14.06;82.18555;948.6627;;;;
2019/05/20 00:11:56;;;;;;;11.4;10.2;;;;;;;14.07;81.90527;948.6912;;;;
2019/05/20 00:14:21;;;;;;;11.2;10.1;;;;;;;14.09;82.03906;948.7191;;;;
2019/05/20 00:16:46;;;;;;;11.7;10.5;;;;;;;14.04;81.90039;948.7003;;;;
2019/05/20 00:19:11;;;;;;;12.2;10.9;;;;;;;14.11;81.91309;948.6761;;;;
2019/05/20 00:21:36;;;;;;;11.3;10.2;;;;;;;14.06;81.8584;948.6275;;;;
2019/05/20 00:24:02;;;;;;;11.4;10.3;;;;;;;14.08;82.00195;948.7203;;;;
2019/05/20 00:26:27;;;;;;;13.3;12;;;;;;;14.11;82.07813;948.6801;;;;
2019/05/20 00:28:52;;;;;;;12.1;10.7;;;;;;;14.14;81.70703;948.7286;;;;
2019/05/20 00:31:17;;;;;;;13.3;12;;;;;;;14.13;82.59863;948.7299;;;;
2019/05/20 00:33:42;;;;;;;13.1;11.8;;;;;;;14.14;82.19043;948.6844;;;;
2019/05/20 00:36:07;;;;;;;12.5;11.2;;;;;;;14.09;82.41504;948.693;;;;
2019/05/20 00:38:32;;;;;;;14.2;12.8;;;;;;;14.31;82.10449;948.6789;;;;
2019/05/20 00:40:58;;;;;;;14.4;13;;;;;;;14.38;81.01074;948.5951;;;;
2019/05/20 00:43:23;;;;;;;14.2;12.7;;;;;;;14.27;81.55664;948.5508;;;;
2019/05/20 00:45:48;;;;;;;14.9;13.5;;;;;;;14.26;81.71777;948.5009;;;;
2019/05/20 00:48:13;;;;;;;14.4;13;;;;;;;14.21;82.01367;948.5356;;;;
2019/05/20 00:50:38;;;;;;;15.1;13.6;;;;;;;14.25;81.375;948.5504;;;;
2019/05/20 00:53:03;;;;;;;15.4;13.9;;;;;;;14.16;81.50977;948.5689;;;;
2019/05/20 00:55:28;;;;;;;15.6;14.1;;;;;;;14.12;82.25586;948.5151;;;;
2019/05/20 00:57:54;;;;;;;15.4;13.9;;;;;;;14.07;81.94043;948.5781;;;;
2019/05/20 01:00:19;;;;;;;15.6;14.1;;;;;;;13.97;82.50977;948.655;;;;
2019/05/20 01:02:44;;;;;;;15.9;14.4;;;;;;;14;82.85742;948.546;;;;
2019/05/20 01:05:09;;;;;;;18.6;14.7;;;;;;;14.12;81.91504;948.562;;;;
2019/05/20 01:07:34;;;;;;;16.6;14.9;;;;;;;14.17;81.67773;948.5547;;;;
2019/05/20 01:09:59;;;;;;;16.6;15;;;;;;;14.13;81.7168;948.4866;;;;
2019/05/20 01:12:26;;;;;;;17.5;15.9;;;;;;;14.06;81.9873;948.5663;;;;
2019/05/20 01:14:51;;;;;;;17.1;15.5;;;;;;;14.11;81.74902;948.4719;;;;
2019/05/20 01:17:17;;;;;;;16.3;14.7;;;;;;;14;82.11621;948.5631;;;;
2019/05/20 01:19:51;;;;;;;17.4;15.6;;;;;;;13.87;82.80859;948.4975;;;;
2019/05/20 01:22:23;;;;;;;16.9;15.3;;;;;;;13.8;83.24121;948.516;;;;
2019/05/20 01:24:49;;;;;;;17.5;15.7;;;;;;;13.85;83.13379;948.4788;;;;
2019/05/20 01:27:13;;;;;;;18.8;16.9;;;;;;;13.78;83.27344;948.3897;;;;
2019/05/20 01:29:38;;;;;;;19.3;17.5;;;;;;;13.74;83.55957;948.4738;;;;
2019/05/20 01:32:03;;;;;;;18.8;16.9;;;;;;;13.8;83.71094;948.3652;;;;
2019/05/20 01:34:29;;;;;;;19.8;17.8;;;;;;;13.82;83.39746;948.3798;;;;
2019/05/20 01:36:54;;;;;;;20.9;18.8;;;;;;;13.77;83.58887;948.4037;;;;
2019/05/20 01:39:19;;;;;;;20.7;18.7;;;;;;;13.74;83.58398;948.3784;;;;
2019/05/20 01:41:45;;;;;;;21.4;19.1;;;;;;;13.75;83.60742;948.3203;;;;
2019/05/20 01:44:10;;;;;;;21.5;19.4;;;;;;;13.7;84.17383;948.3845;;;;
2019/05/20 01:46:35;;;;;;;23.2;20.9;;;;;;;13.65;84.36328;948.3409;;;;
2019/05/20 01:49:00;;;;;;;21.2;19.2;;;;;;;13.45;84.93652;948.2758;;;;
2019/05/20 01:51:25;;;;;;;22.1;19.9;;;;;;;13.44;85.50977;948.2211;;;;
2019/05/20 01:53:51;;;;;;;20.4;18.5;;;;;;;13.6;84.37793;948.2532;;;;
2019/05/20 01:56:16;;;;;;;23.2;20.9;;;;;;;13.51;84.74707;948.2062;;;;
2019/05/20 01:58:41;;;;;;;22.4;20.2;;;;;;;13.58;84.26758;948.2736;;;;
2019/05/20 02:01:06;;;;;;;22;19.9;;;;;;;13.48;84.56543;948.2932;;;;
2019/05/20 02:03:31;;;;;;;23.2;20.9;;;;;;;13.45;84.59375;948.2198;;;;
2019/05/20 02:05:56;;;;;;;23.3;21;;;;;;;13.5;84.41602;948.2296;;;;
2019/05/20 02:08:22;;;;;;;24.6;22.3;;;;;;;13.59;83.90527;948.2853;;;;
2019/05/20 02:10:47;;;;;;;23.3;21.1;;;;;;;13.38;84.94531;948.3176;;;;
2019/05/20 02:13:13;;;;;;;23.4;21.2;;;;;;;13.45;84.55859;948.4279;;;;
2019/05/20 02:15:53;;;;;;;23;20.6;;;;;;;13.5;84.22852;948.4207;;;;
2019/05/20 02:18:03;;;;;;;24;21.6;;;;;;;13.51;84.125;948.3792;;;;
2019/05/20 02:20:28;;;;;;;23.1;20.9;;;;;;;13.59;83.97559;948.4583;;;;
2019/05/20 02:23:12;;;;;;;25.2;22.7;;;;;;;13.55;84.08594;948.4902;;;;
2019/05/20 02:25:26;;;;;;;23.5;21.2;;;;;;;13.49;84.14453;948.4349;;;;
2019/05/20 02:27:51;;;;;;;23.4;21.1;;;;;;;13.52;84.30469;948.3822;;;;
2019/05/20 02:30:16;;;;;;;23.5;21.1;;;;;;;13.6;83.97949;948.3481;;;;
2019/05/20 02:32:41;;;;;;;23.1;21;;;;;;;13.5;84.59277;948.4246;;;;
2019/05/20 02:35:06;;;;;;;21.8;19.8;;;;;;;13.6;83.98926;948.4534;;;;
2019/05/20 02:37:31;;;;;;;21.4;19.3;;;;;;;13.59;84.13965;948.4105;;;;
2019/05/20 02:39:56;;;;;;;21.3;19.3;;;;;;;13.63;84.3584;948.3704;;;;
2019/05/20 02:42:22;;;;;;;21.5;19.3;;;;;;;13.59;84.42188;948.3373;;;;
2019/05/20 02:44:47;;;;;;;21.6;19.6;;;;;;;13.66;84.21289;948.3124;;;;
2019/05/20 02:47:17;;;;;;;21.1;19.1;;;;;;;13.72;83.50781;948.3081;;;;
2019/05/20 02:49:42;;;;;;;22.3;20.1;;;;;;;13.66;83.87207;948.3045;;;;
2019/05/20 02:52:07;;;;;;;21.4;19.4;;;;;;;13.53;84.32813;948.2899;;;;
2019/05/20 02:54:32;;;;;;;22.6;20.2;;;;;;;13.58;84.11523;948.2775;;;;
2019/05/20 02:56:58;;;;;;;21.9;19.7;;;;;;;13.65;83.84473;948.1939;;;;
2019/05/20 02:59:23;;;;;;;20.1;18.2;;;;;;;13.68;83.62891;948.1931;;;;
2019/05/20 03:01:50;;;;;;;22.1;20;;;;;;;13.78;83.17871;948.2076;;;;
2019/05/20 03:04:15;;;;;;;21.2;19;;;;;;;13.59;83.37695;948.2892;;;;
2019/05/20 03:06:40;;;;;;;21.7;19.6;;;;;;;13.54;84.16699;948.1885;;;;
2019/05/20 03:09:05;;;;;;;21;19;;;;;;;13.55;83.83789;948.2224;;;;
2019/05/20 03:11:30;;;;;;;21.4;19.3;;;;;;;13.49;84.32129;948.2659;;;;
2019/05/20 03:13:56;;;;;;;22.2;20;;;;;;;13.55;83.98047;948.1821;;;;
2019/05/20 03:16:21;;;;;;;21.7;19.6;;;;;;;13.61;83.60352;948.1297;;;;
2019/05/20 03:18:46;;;;;;;21.6;19.6;;;;;;;13.68;83.07813;948.1749;;;;
2019/05/20 03:21:12;;;;;;;21.9;19.8;;;;;;;13.7;83.07031;948.1503;;;;
2019/05/20 03:23:37;;;;;;;21.6;19.6;;;;;;;13.66;83.26172;948.0783;;;;
2019/05/20 03:26:03;;;;;;;22.1;19.9;;;;;;;13.71;83.03613;948.0934;;;;
2019/05/20 03:28:28;;;;;;;21.2;19.2;;;;;;;13.67;83.45117;948.0604;;;;
2019/05/20 03:30:53;;;;;;;21.1;19;;;;;;;13.63;83.32617;948.0492;;;;
2019/05/20 03:33:18;;;;;;;21.3;19.3;;;;;;;13.57;83.56152;948.0759;;;;
2019/05/20 03:35:44;;;;;;;21.4;19.4;;;;;;;13.55;83.61621;948.0833;;;;
2019/05/20 03:38:11;;;;;;;22.7;20.4;;;;;;;13.53;83.91699;948.1078;;;;
2019/05/20 03:40:36;;;;;;;23.1;20.8;;;;;;;13.55;83.5918;948.0144;;;;
2019/05/20 03:43:01;;;;;;;22.8;20.4;;;;;;;13.57;83.86621;948.0538;;;;
2019/05/20 03:45:26;;;;;;;21.6;19.3;;;;;;;13.67;83.24121;948.0683;;;;
2019/05/20 03:47:51;;;;;;;21.4;19.4;;;;;;;13.84;82.60156;948.0339;;;;
2019/05/20 03:50:17;;;;;;;22.7;20.1;;;;;;;13.77;82.61328;948.0655;;;;
2019/05/20 03:52:43;;;;;;;20.8;18.7;;;;;;;13.78;82.54492;948.0515;;;;
2019/05/20 03:55:09;;;;;;;20.7;18.7;;;;;;;13.7;82.50586;948.0593;;;;
2019/05/20 03:57:35;;;;;;;19.8;17.8;;;;;;;13.71;82.42578;948.0363;;;;
2019/05/20 04:00:00;;;;;;;20.5;18.6;;;;;;;13.87;81.85645;947.981;;;;
2019/05/20 04:02:29;;;;;;;20.7;18.5;;;;;;;13.83;81.91895;947.9219;;;;
2019/05/20 04:04:54;;;;;;;20.9;18.9;;;;;;;13.82;82.38867;947.9492;;;;
2019/05/20 04:07:19;;;;;;;20.1;18.3;;;;;;;13.75;82.06836;947.9782;;;;
2019/05/20 04:09:47;;;;;;;18.5;16.7;;;;;;;13.8;81.96094;947.9788;;;;
2019/05/20 04:12:12;;;;;;;19.9;18.1;;;;;;;13.68;82.69043;947.9539;;;;
2019/05/20 04:14:38;;;;;;;18.2;16.5;;;;;;;13.64;82.03613;948.017;;;;
2019/05/20 04:17:03;;;;;;;19.3;17.5;;;;;;;13.71;82.36719;947.9764;;;;
2019/05/20 04:19:28;;;;;;;18.7;16.9;;;;;;;13.77;81.7793;947.9744;;;;
2019/05/20 04:21:55;;;;;;;19.1;17.2;;;;;;;13.78;82.21387;947.9653;;;;
2019/05/20 04:24:21;;;;;;;18.5;16.6;;;;;;;13.75;82.0918;947.9691;;;;
2019/05/20 04:26:46;;;;;;;19.8;17.8;;;;;;;13.78;82.13184;947.9263;;;;
2019/05/20 04:29:11;;;;;;;18.4;16.5;;;;;;;13.75;82.15039;947.9392;;;;
2019/05/20 04:31:37;;;;;;;18.1;16.4;;;;;;;13.76;82.22266;947.869;;;;
2019/05/20 04:34:05;;;;;;;17.7;16;;;;;;;13.66;82.48633;947.8884;;;;
2019/05/20 04:36:30;;;;;;;18;16.2;;;;;;;13.61;82.51172;947.8696;;;;
2019/05/20 04:38:57;;;;;;;20.1;16.2;;;;;;;13.65;82.32031;947.8246;;;;
2019/05/20 04:41:21;;;;;;;17.8;16.2;;;;;;;13.67;82.2998;947.8822;;;;
2019/05/20 04:43:47;;;;;;;17.7;16;;;;;;;13.7;82.17578;947.8954;;;;
2019/05/20 04:46:13;;;;;;;19;17.1;;;;;;;13.72;82.14551;947.8658;;;;
2019/05/20 04:48:38;;;;;;;20.3;18.3;;;;;;;13.81;81.69434;947.8812;;;;
2019/05/20 04:51:03;;;;;;;20.3;18.3;;;;;;;13.76;82.21094;947.921;;;;
2019/05/20 04:53:28;;;;;;;19.2;17.4;;;;;;;13.72;82.21387;947.9009;;;;
2019/05/20 04:55:54;;;;;;;18.6;16.8;;;;;;;13.58;82.31836;948.0174;;;;
2019/05/20 04:58:19;;;;;;;18.8;16.9;;;;;;;13.69;82.15039;947.9916;;;;
2019/05/20 05:00:57;;;;;;;20.7;18.5;;;;;;;13.9;81.27441;948.0374;;;;
2019/05/20 05:03:33;;;;;;;19.6;17.7;;;;;;;13.86;81.61816;948.0134;;;;
2019/05/20 05:05:58;;;;;;;19;17.1;;;;;;;13.64;82.04785;948.008;;;;
2019/05/20 05:08:23;;;;;;;19.5;17.6;;;;;;;13.78;82.01465;948.0086;;;;
2019/05/20 05:10:50;;;;;;;17.6;16;;;;;;;13.82;81.63672;948.0273;;;;
2019/05/20 05:13:19;;;;;;;19.3;16.1;;;;;;;13.86;81.50098;947.9614;;;;
2019/05/20 05:15:44;;;;;;;17.3;15.7;;;;;;;14.1;80.69922;948.0188;;;;
2019/05/20 05:18:09;;;;;;;17;15.4;;;;;;;14.17;80.26855;947.9547;;;;
2019/05/20 05:20:34;;;;;;;17.6;15.8;;;;;;;14.34;79.56836;947.9892;;;;
2019/05/20 05:22:59;;;;;;;16.5;14.7;;;;;;;14.3;79.4209;947.9472;;;;
2019/05/20 05:25:24;;;;;;;15.9;14.1;;;;;;;14.34;78.96875;947.9371;;;;
2019/05/20 05:30:13;;;;;;;15;13.5;;;;;;;14.33;79.19043;947.8821;;;;
2019/05/20 05:32:41;;;;;;;15.9;14.4;;;;;;;14.18;79.62207;947.8284;;;;
2019/05/20 05:35:03;;;;;;;16.2;14.4;;;;;;;14.2;79.61523;947.89;;;;
2019/05/20 05:37:28;;;;;;;16;14;;;;;;;14.16;79.71289;947.8348;;;;
2019/05/20 05:39:54;;;;;;;16;14.4;;;;;;;14.18;79.75098;947.8844;;;;
2019/05/20 05:42:20;;;;;;;15.1;13.6;;;;;;;14.18;79.56348;947.9013;;;;
2019/05/20 05:44:45;;;;;;;14.8;13.5;;;;;;;14.05;79.87012;948.017;;;;
2019/05/20 05:47:11;;;;;;;14.2;12.8;;;;;;;13.96;80.0166;948.0184;;;;
2019/05/20 05:49:36;;;;;;;15;13.5;;;;;;;14.01;80.07324;948.1025;;;;
2019/05/20 05:52:01;;;;;;;14.4;12.9;;;;;;;14.02;79.5459;948.057;;;;
2019/05/20 05:54:26;;;;;;;14.7;13.3;;;;;;;14.09;79.87598;948.0071;;;;
2019/05/20 05:57:02;;;;;;;15;13.3;;;;;;;14.15;79.66406;948.0714;;;;
2019/05/20 05:59:42;;;;;;;14.7;13.3;;;;;;;14.09;79.95898;947.9941;;;;
2019/05/20 06:02:07;;;;;;;14.8;13.3;;;;;;;14.28;79.1123;947.9897;;;;
2019/05/20 06:04:37;;;;;;;17.1;13;;;;;;;14.14;79.22559;947.9217;;;;
2019/05/20 06:07:02;;;;;;;13.9;12.5;;;;;;;14.12;79.5752;947.9853;;;;
2019/05/20 06:09:27;;;;;;;14.3;13;;;;;;;14.13;79.3877;948.0362;;;;
2019/05/20 06:11:52;;;;;;;14;12.7;;;;;;;14.24;78.8457;948.0219;;;;
2019/05/20 06:14:18;;;;;;;15;13.4;;;;;;;14.38;78.6582;948.0482;;;;
2019/05/20 06:16:43;;;;;;;14;12.6;;;;;;;14.26;79.17773;947.9972;;;;
2019/05/20 06:19:23;;;;;;;14.3;12.7;;;;;;;14.37;78.45605;947.9932;;;;
2019/05/20 06:21:49;;;;;;;13.3;11.9;;;;;;;14.46;78.11914;947.9709;;;;
2019/05/20 06:24:14;;;;;;;14.9;13.4;;;;;;;14.74;77.80469;947.8695;;;;
2019/05/20 06:26:39;;;;;;;14.4;12.9;;;;;;;14.7;77.16113;947.976;;;;
2019/05/20 06:29:04;;;;;;;12.7;11.4;;;;;;;14.96;77.32617;948.0031;;;;
2019/05/20 06:31:30;;;;;;;14;11.3;;;;;;;14.95;76.37012;948.0266;;;;
2019/05/20 06:33:55;;;;;;;13.1;11.8;;;;;;;15.08;76.24023;948.0223;;;;
2019/05/20 06:36:21;;;;;;;13.4;12.1;;;;;;;15.06;76.07227;948.0471;;;;
2019/05/20 06:38:47;;;;;;;14.4;11.9;;;;;;;14.93;76.90918;948.0249;;;;
2019/05/20 06:41:11;;;;;;;12.8;11.4;;;;;;;14.62;77.58398;948.0574;;;;
2019/05/20 06:43:37;;;;;;;13.2;11.8;;;;;;;14.95;76.48828;948.1047;;;;
2019/05/20 06:46:02;;;;;;;13.6;12.1;;;;;;;14.87;76.63867;948.0872;;;;
2019/05/20 06:48:27;;;;;;;12.9;11.6;;;;;;;14.85;76.32813;948.0776;;;;
2019/05/20 06:50:53;;;;;;;14.3;12.8;;;;;;;14.93;76.32031;948.1683;;;;
2019/05/20 06:53:18;;;;;;;13.8;11.6;;;;;;;14.71;77.42188;948.135;;;;
2019/05/20 06:55:43;;;;;;;13.6;12.3;;;;;;;14.89;76.55957;948.1484;;;;
2019/05/20 06:58:08;;;;;;;13.3;11.9;;;;;;;14.8;76.63867;948.1464;;;;
2019/05/20 07:00:51;;;;;;;13.3;11.9;;;;;;;14.66;77.83789;948.1815;;;;
2019/05/20 07:03:16;;;;;;;13.9;12.5;;;;;;;14.78;77.10449;948.1539;;;;
2019/05/20 07:05:41;;;;;;;14.8;13.3;;;;;;;14.76;77.01953;948.1395;;;;
2019/05/20 07:08:07;;;;;;;14.4;12.9;;;;;;;14.7;77.71582;948.105;;;;
2019/05/20 07:10:32;;;;;;;15.6;12.4;;;;;;;14.67;77.12109;948.1802;;;;
2019/05/20 07:12:57;;;;;;;15.4;13.6;;;;;;;14.85;77.16406;948.1689;;;;
2019/05/20 07:15:23;;;;;;;13.9;12.4;;;;;;;15.02;76.22949;948.1927;;;;
2019/05/20 07:17:48;;;;;;;14.9;13.3;;;;;;;15.21;75.55664;948.2008;;;;
2019/05/20 07:20:13;;;;;;;15.5;13.8;;;;;;;15.19;75.91699;948.1613;;;;
2019/05/20 07:22:39;;;;;;;15.4;13;;;;;;;15;76.43848;948.1741;;;;
2019/05/20 07:25:04;;;;;;;15.8;13.9;;;;;;;14.91;77.19922;948.1669;;;;
2019/05/20 07:27:29;;;;;;;14.4;12.9;;;;;;;14.71;77.45898;948.23;;;;
2019/05/20 07:30:16;;;;;;;14.9;13.3;;;;;;;14.8;77.33301;948.1855;;;;
2019/05/20 07:32:51;;;;;;;16.6;14.7;;;;;;;15.04;76.83301;948.2332;;;;
2019/05/20 07:35:16;;;;;;;16.5;13.9;;;;;;;14.96;77.16113;948.2507;;;;
2019/05/20 07:37:42;;;;;;;16.1;13.3;;;;;;;15.05;76.95313;948.1666;;;;
2019/05/20 07:40:07;;;;;;;16.3;14.5;;;;;;;15.01;76.45215;948.225;;;;
2019/05/20 07:42:32;;;;;;;16.1;14.5;;;;;;;15.17;76.92773;948.1953;;;;
2019/05/20 07:45:14;;;;;;;14.7;13.1;;;;;;;15.24;76.43359;948.1828;;;;
2019/05/20 07:48:00;;;;;;;19.4;16.2;;;;;;;15.23;76.14746;948.2203;;;;
2019/05/20 07:50:24;;;;;;;19.1;16.8;;;;;;;15.1;76.90332;948.2285;;;;
2019/05/20 07:52:49;;;;;;;18.2;16.4;;;;;;;15.09;77.13574;948.1738;;;;
2019/05/20 07:55:15;;;;;;;19.2;16.9;;;;;;;15.31;76.52832;948.1155;;;;
2019/05/20 07:57:40;;;;;;;18.5;16.7;;;;;;;15.28;76.93555;948.0983;;;;
2019/05/20 08:00:17;;;;;;;19.1;17.2;;;;;;;15.13;76.80176;948.1493;;;;
2019/05/20 08:02:42;;;;;;;20.4;18.4;;;;;;;15.36;76.25391;948.1418;;;;
2019/05/20 08:05:07;;;;;;;19;17;;;;;;;15.27;76.81543;948.1789;;;;
2019/05/20 08:07:35;;;;;;;19.2;17.2;;;;;;;15.33;76.40137;948.199;;;;
2019/05/20 08:10:00;;;;;;;19.4;17.3;;;;;;;15.35;77.07617;948.2697;;;;
2019/05/20 08:12:39;;;;;;;19.3;17.2;;;;;;;15.07;78.35938;948.2503;;;;
2019/05/20 08:15:08;;;;;;;20.8;18.1;;;;;;;15.25;77.12988;948.2858;;;;
2019/05/20 08:17:33;;;;;;;20.5;18.3;;;;;;;15.22;77.80859;948.2034;;;;
2019/05/20 08:19:59;;;;;;;20.8;18.6;;;;;;;15.44;76.71484;948.1685;;;;
2019/05/20 08:22:24;;;;;;;21.7;19.5;;;;;;;15.41;76.28613;948.1865;;;;
2019/05/20 08:24:52;;;;;;;21;18.8;;;;;;;15.57;76.03223;948.2335;;;;
2019/05/20 08:27:17;;;;;;;20.1;18;;;;;;;15.8;75.53906;948.2311;;;;
2019/05/20 08:29:42;;;;;;;20.3;18.3;;;;;;;16.06;74.13086;948.1972;;;;
2019/05/20 08:32:07;;;;;;;19.3;17.3;;;;;;;16.24;73.5127;948.1664;;;;
2019/05/20 08:34:32;;;;;;;20.5;18.4;;;;;;;16.19;73.79883;948.1663;;;;
2019/05/20 08:36:58;;;;;;;20.7;18.6;;;;;;;16.22;73.82715;948.1534;;;;
2019/05/20 08:39:43;;;;;;;20.6;18.5;;;;;;;16.24;73.79492;948.2017;;;;
2019/05/20 08:42:08;;;;;;;21;18.8;;;;;;;16.09;74.19434;948.171;;;;
2019/05/20 08:44:34;;;;;;;24.6;19.2;;;;;;;16;74.81836;948.176;;;;
2019/05/20 08:46:59;;;;;;;20.9;18.8;;;;;;;15.68;75.50781;948.2592;;;;
2019/05/20 08:49:27;;;;;;;24.7;18.9;;;;;;;15.5;77.17578;948.1925;;;;
2019/05/20 08:51:52;;;;;;;22.7;20.3;;;;;;;15.59;76.6582;948.1564;;;;
2019/05/20 08:54:17;;;;;;;25.8;21;;;;;;;15.69;76.79492;948.1573;;;;
2019/05/20 08:56:43;;;;;;;21.9;18.8;;;;;;;15.75;76.29688;948.1694;;;;
2019/05/20 08:59:08;;;;;;;22.3;20;;;;;;;15.82;76.1084;948.2324;;;;
2019/05/20 09:01:33;;;;;;;22.7;20.2;;;;;;;15.59;77.05957;948.3091;;;;
2019/05/20 09:03:59;;;;;;;23;20.6;;;;;;;15.55;77.05176;948.3466;;;;
2019/05/20 09:06:24;;;;;;;24.5;21.9;;;;;;;15.36;77.83301;948.3727;;;;
2019/05/20 09:08:52;;;;;;;25.5;22.7;;;;;;;15.17;78.7998;948.3347;;;;
2019/05/20 09:11:17;;;;;;;27;23.6;;;;;;;15.28;79.02246;948.2678;;;;
2019/05/20 09:13:43;;;;;;;25.5;22.7;;;;;;;15.14;79.40723;948.3304;;;;
2019/05/20 09:16:08;;;;;;;25.8;22.8;;;;;;;15.36;78.62207;948.2905;;;;
2019/05/20 09:18:40;;;;;;;29.4;26.3;;;;;;;15.38;78.25;948.2905;;;;
2019/05/20 09:21:17;;;;;;;26.9;24;;;;;;;15.47;78.32324;948.2509;;;;
2019/05/20 09:23:42;;;;;;;27.5;24;;;;;;;15.59;77.86133;948.2791;;;;
2019/05/20 09:26:07;;;;;;;27.2;23.8;;;;;;;15.74;78.03125;948.275;;;;
2019/05/20 09:28:32;;;;;;;27.9;23.9;;;;;;;15.76;77.16016;948.2684;;;;
2019/05/20 09:31:04;;;;;;;25.6;22.9;;;;;;;15.7;77.10352;948.3387;;;;
2019/05/20 09:33:31;;;;;;;25.6;22.9;;;;;;;15.63;77.63379;948.3028;;;;
2019/05/20 09:35:56;;;;;;;24.9;22.4;;;;;;;15.51;77.82422;948.2394;;;;
2019/05/20 09:38:22;;;;;;;24.6;21.6;;;;;;;15.59;77.09473;948.2869;;;;
2019/05/20 09:40:47;;;;;;;23.7;20.9;;;;;;;15.51;77.37598;948.2525;;;;
2019/05/20 09:43:15;;;;;;;22.3;20;;;;;;;15.65;75.56055;948.243;;;;
2019/05/20 09:45:41;;;;;;;21.9;19.7;;;;;;;15.71;74.62695;948.2891;;;;
2019/05/20 09:48:22;;;;;;;22.1;19.9;;;;;;;15.67;74.69043;948.2785;;;;
2019/05/20 09:50:52;;;;;;;24.1;21.6;;;;;;;15.74;74.59766;948.2881;;;;
2019/05/20 09:53:17;;;;;;;23.3;21;;;;;;;15.44;74.98145;948.334;;;;
2019/05/20 09:55:42;;;;;;;25.2;22.7;;;;;;;15.38;75.71484;948.3208;;;;
2019/05/20 09:58:19;;;;;;;23.6;21.4;;;;;;;15.55;74.88281;948.2762;;;;
2019/05/20 10:00:44;;;;;;;24.6;22.2;;;;;;;15.62;75.5791;948.2819;;;;
2019/05/20 10:03:09;;;;;;;25.6;23.2;;;;;;;15.7;75.03906;948.3127;;;;
2019/05/20 10:05:35;;;;;;;26.8;24.3;;;;;;;15.7;74.57813;948.3257;;;;
2019/05/20 10:08:00;;;;;;;29.8;23.6;;;;;;;15.86;74.19238;948.3044;;;;
2019/05/20 10:10:25;;;;;;;28;25.1;;;;;;;15.88;74.51563;948.3347;;;;
2019/05/20 10:12:50;;;;;;;29.4;26.6;;;;;;;15.75;74.37402;948.3259;;;;
2019/05/20 10:15:15;;;;;;;30.1;27;;;;;;;15.72;74.74707;948.3139;;;;
2019/05/20 10:17:40;;;;;;;31.3;28.2;;;;;;;16.06;74.11914;948.3758;;;;
2019/05/20 10:20:05;;;;;;;31.4;28.4;;;;;;;15.92;74.34277;948.3035;;;;
2019/05/20 10:22:30;;;;;;;31;27.8;;;;;;;15.59;75.19629;948.3481;;;;
2019/05/20 10:24:55;;;;;;;39.9;35.7;;;;;;;15.94;74.78418;948.3466;;;;
2019/05/20 10:27:21;;;;;;;36.3;32.8;;;;;;;15.98;74.43652;948.4106;;;;
2019/05/20 10:29:46;;;;;;;33;29.8;;;;;;;15.82;74.5166;948.3837;;;;
2019/05/20 10:32:11;;;;;;;34.8;31.5;;;;;;;15.92;74.0127;948.4863;;;;
2019/05/20 10:34:56;;;;;;;34.7;31.2;;;;;;;15.95;74.39453;948.3507;;;;
2019/05/20 10:37:21;;;;;;;32;29.1;;;;;;;15.9;73.91504;948.3894;;;;
2019/05/20 10:39:48;;;;;;;34.5;31;;;;;;;15.86;74.15723;948.4075;;;;
2019/05/20 10:42:33;;;;;;;39.2;35.5;;;;;;;15.87;74.86719;948.3761;;;;
2019/05/20 10:44:59;;;;;;;34.7;31.5;;;;;;;15.93;74.01563;948.353;;;;
2019/05/20 10:47:24;;;;;;;34.2;31;;;;;;;16.07;74.81738;948.4178;;;;
2019/05/20 10:50:00;;;;;;;33.8;30.6;;;;;;;16.02;74.25488;948.3211;;;;
2019/05/20 10:52:38;;;;;;;33.9;30.8;;;;;;;16.12;73.84766;948.2952;;;;
2019/05/20 10:55:04;;;;;;;41.8;37.9;;;;;;;16.33;72.91309;948.3041;;;;
2019/05/20 10:57:29;;;;;;;32.5;29.5;;;;;;;16.56;72.53809;948.34;;;;
2019/05/20 10:59:56;;;;;;;36.7;33.1;;;;;;;16.79;71.29883;948.3539;;;;
2019/05/20 11:02:23;;;;;;;33.9;30.6;;;;;;;16.63;72.18262;948.2932;;;;
2019/05/20 11:04:48;;;;;;;34.4;30.8;;;;;;;16.53;72.36816;948.3267;;;;
2019/05/20 11:07:13;;;;;;;37.2;33.7;;;;;;;16.41;72.2998;948.3513;;;;
2019/05/20 11:09:40;;;;;;;38.5;34.9;;;;;;;16.76;71.81445;948.3367;;;;
2019/05/20 11:12:05;;;;;;;36.5;33.1;;;;;;;16.64;72.23145;948.3441;;;;
2019/05/20 11:14:30;;;;;;;36.2;32.7;;;;;;;16.59;72.11621;948.3441;;;;
2019/05/20 11:16:55;;;;;;;37.6;34.1;;;;;;;16.31;72.4834;948.4083;;;;
2019/05/20 11:19:33;;;;;;;39.2;35.6;;;;;;;16.11;73.97656;948.3488;;;;
2019/05/20 11:21:58;;;;;;;38.6;34.9;;;;;;;16.3;73.5332;948.3183;;;;
2019/05/20 11:24:25;;;;;;;38.7;35;;;;;;;16.44;73.22656;948.26;;;;
2019/05/20 11:26:51;;;;;;;38.1;34.6;;;;;;;16.32;73.85742;948.3577;;;;
2019/05/20 11:29:16;;;;;;;40.8;36.8;;;;;;;16.41;74.18945;948.3134;;;;
2019/05/20 11:33:47;;;;;;;45;40.9;;;;;;;16.06;75.24121;948.2452;;;;
2019/05/20 11:36:24;;;;;;;43.5;39.3;;;;;;;16.17;75.20215;948.3701;;;;
2019/05/20 11:38:50;;;;;;;42.1;38.1;;;;;;;15.68;76.65039;948.2601;;;;
2019/05/20 11:41:15;;;;;;;45.4;41;;;;;;;15.6;78.05371;948.3325;;;;
2019/05/20 11:43:41;;;;;;;47.4;42.8;;;;;;;15.06;82.35156;948.3298;;;;
2019/05/20 11:46:06;;;;;;;54.9;49.3;;;;;;;15;83.22363;948.3475;;;;
2019/05/20 11:48:31;;;;;;;54.7;49.3;;;;;;;14.83;84.02637;948.3278;;;;
2019/05/20 11:50:57;;;;;;;54.2;48.9;;;;;;;14.73;84.55859;948.3489;;;;
2019/05/20 11:53:22;;;;;;;53.8;48.8;;;;;;;14.87;84.19922;948.3738;;;;
2019/05/20 11:55:52;;;;;;;56.1;50.7;;;;;;;14.85;84.63184;948.4243;;;;
2019/05/20 11:58:17;;;;;;;52.3;47;;;;;;;14.62;85.66797;948.5614;;;;
2019/05/20 12:00:47;;;;;;;93.6;56.8;;;;;;;14.44;92.77441;948.7245;;;;
2019/05/20 12:03:12;;;;;;;81;62;;;;;;;14.18;94.9541;948.9036;;;;
2019/05/20 12:05:38;;;;;;;121.6;69.3;;;;;;;14.03;96.14355;949.1619;;;;
2019/05/20 12:08:03;;;;;;;210.3;81.9;;;;;;;14.04;97.01563;949.1997;;;;
2019/05/20 12:10:28;;;;;;;140;55.5;;;;;;;13.74;96.71387;949.2551;;;;
2019/05/20 12:12:55;;;;;;;175.8;62.4;;;;;;;13.68;97.5;949.1465;;;;
2019/05/20 12:15:25;;;;;;;238.9;69.4;;;;;;;-33;31.24707;878.8231;;;;
2019/05/20 12:17:51;;;;;;;33;29.6;;;;;;;-33;31.24707;878.8231;;;;
2019/05/20 12:20:20;;;;;;;51.3;45.6;;;;;;;-33;31.24707;878.8231;;;;
2019/05/20 12:22:45;;;;;;;35.5;31.9;;;;;;;-33;31.24707;878.8231;;;;
2019/05/20 12:25:10;;;;;;;36.5;32.7;;;;;;;-33;31.24707;878.8231;;;;
2019/05/20 12:27:52;;;;;;;45.7;40.7;;;;;;;-33;31.24707;878.8231;;;;
2019/05/20 12:30:17;;;;;;;51.6;43.6;;;;;;;-33;31.24707;878.8231;;;;
2019/05/20 12:32:42;;;;;;;54.5;41.9;;;;;;;-33;31.24707;878.8231;;;;
2019/05/20 12:35:08;;;;;;;41.4;37;;;;;;;-33;31.24707;878.8231;;;;
2019/05/20 12:37:38;;;;;;;49.5;42.9;;;;;;;-33;31.24707;878.8231;;;;
2019/05/20 12:40:03;;;;;;;36.1;32.2;;;;;;;-33;31.24707;878.8231;;;;
2019/05/20 12:42:28;;;;;;;28;24.2;;;;;;;-33;31.24707;878.8231;;;;
2019/05/20 12:44:59;;;;;;;27.4;24.5;;;;;;;-33;31.24707;878.8231;;;;
2019/05/20 12:47:33;;;;;;;19.7;16.6;;;;;;;-33;31.24707;878.8231;;;;
2019/05/20 12:49:58;;;;;;;18.9;15.8;;;;;;;-33;31.24707;878.8231;;;;
2019/05/20 12:52:23;;;;;;;12.6;11.3;;;;;;;-33;31.24707;878.8231;;;;
2019/05/20 12:54:49;;;;;;;10;9;;;;;;;13.47;89.35352;949.0664;;;;
2019/05/20 12:57:15;;;;;;;13.6;12.1;;;;;;;;;;;;;
2019/05/20 12:59:40;;;;;;;16.9;14.2;;;;;;;;;;;;;
2019/05/20 13:02:05;;;;;;;17.4;15.6;;;;;;;;;;;;;
2019/05/20 13:04:30;;;;;;;26.2;23.3;;;;;;;;;;;;;
2019/05/20 13:06:55;;;;;;;29.1;25.4;;;;;;;;;;;;;
2019/05/20 13:09:20;;;;;;;37.5;33.5;;;;;;;;;;;;;
2019/05/20 13:11:45;;;;;;;44.9;40;;;;;;;;;;;;;
2019/05/20 13:14:11;;;;;;;39.1;34.9;;;;;;;;;;;;;
2019/05/20 13:16:36;;;;;;;41.9;36.2;;;;;;;;;;;;;
2019/05/20 13:19:01;;;;;;;36.7;32.9;;;;;;;;;;;;;
2019/05/20 13:21:26;;;;;;;39.6;35.3;;;;;;;;;;;;;
2019/05/20 13:23:51;;;;;;;36.7;33.1;;;;;;;;;;;;;
2019/05/20 13:26:16;;;;;;;39.1;35;;;;;;;;;;;;;
2019/05/20 13:28:41;;;;;;;28.1;25.4;;;;;;;;;;;;;
2019/05/20 13:31:06;;;;;;;34;30.6;;;;;;;;;;;;;
2019/05/20 13:33:31;;;;;;;36.2;32.6;;;;;;;;;;;;;
2019/05/20 13:35:56;;;;;;;37.3;33.5;;;;;;;;;;;;;
2019/05/20 13:38:22;;;;;;;33.6;30.3;;;;;;;;;;;;;
2019/05/20 13:40:47;;;;;;;33;29.5;;;;;;;;;;;;;
2019/05/20 13:43:12;;;;;;;33.3;29.9;;;;;;;;;;;;;
2019/05/20 13:45:37;;;;;;;34.8;31.2;;;;;;;;;;;;;
2019/05/20 13:48:02;;;;;;;28.2;25.5;;;;;;;;;;;;;
2019/05/20 13:50:27;;;;;;;31.9;28.6;;;;;;;;;;;;;
2019/05/20 13:52:52;;;;;;;28.9;26.1;;;;;;;;;;;;;
2019/05/20 13:55:18;;;;;;;27;24.2;;;;;;;;;;;;;
2019/05/20 13:57:43;;;;;;;25.8;23.3;;;;;;;;;;;;;
2019/05/20 14:00:08;;;;;;;30.9;27.8;;;;;;;;;;;;;
2019/05/20 14:02:33;;;;;;;24.3;21.9;;;;;;;;;;;;;
2019/05/20 14:04:58;;;;;;;24.1;21.9;;;;;;;;;;;;;
2019/05/20 14:07:23;;;;;;;16.8;15.2;;;;;;;;;;;;;
2019/05/20 14:09:49;;;;;;;21.8;19.6;;;;;;;;;;;;;
2019/05/20 14:12:14;;;;;;;17.1;15.5;;;;;;;;;;;;;
2019/05/20 14:14:39;;;;;;;16.9;15.2;;;;;;;;;;;;;
2019/05/20 14:17:04;;;;;;;16;14.5;;;;;;;;;;;;;
2019/05/20 14:19:30;;;;;;;13.6;12.4;;;;;;;;;;;;;
2019/05/20 14:21:55;;;;;;;13.5;12.2;;;;;;;;;;;;;
2019/05/20 14:24:20;;;;;;;12;10.8;;;;;;;;;;;;;
2019/05/20 14:26:45;;;;;;;12.1;10.9;;;;;;;;;;;;;
2019/05/20 14:29:10;;;;;;;10.6;9.5;;;;;;;;;;;;;
2019/05/20 14:31:35;;;;;;;11.1;9.9;;;;;;;;;;;;;
2019/05/20 14:34:02;;;;;;;15.2;13.1;;;;;;;;;;;;;